createdAt,value
2022-11-12T00:01:01.787Z,68.60
2022-11-12T00:03:28.326Z,72.80
2022-11-12T00:05:54.817Z,64.40
2022-11-12T00:08:21.636Z,63.30
2022-11-12T00:10:48.345Z,71.60
2022-11-12T00:13:15.186Z,69.90
2022-11-12T00:15:41.837Z,70.80
2022-11-12T00:18:08.520Z,67.10
2022-11-12T00:20:35.211Z,69.30
2022-11-12T00:23:01.864Z,75.90
2022-11-12T00:25:28.524Z,76.00
2022-11-12T00:28:00.345Z,74.20
2022-11-12T00:30:27.117Z,71.50
2022-11-12T00:32:53.727Z,74.80
2022-11-12T00:35:20.166Z,72.00
2022-11-12T00:37:46.805Z,74.60
2022-11-12T00:40:13.365Z,74.60
2022-11-12T00:42:39.884Z,80.20
2022-11-12T00:45:07.139Z,72.20
2022-11-12T00:47:33.675Z,73.30
2022-11-12T00:50:00.213Z,73.80
2022-11-12T00:52:26.756Z,76.20
2022-11-12T00:54:53.292Z,78.00
2022-11-12T00:57:19.829Z,82.80
2022-11-12T00:59:46.468Z,76.10
2022-11-12T01:02:13.008Z,79.30
2022-11-12T01:04:39.546Z,75.50
2022-11-12T01:07:06.065Z,83.70
2022-11-12T01:09:32.723Z,79.40
2022-11-12T01:11:59.265Z,64.30
2022-11-12T01:14:25.800Z,66.90
2022-11-12T01:16:52.338Z,79.70
2022-11-12T01:19:18.928Z,67.00
2022-11-12T01:21:45.512Z,62.00
2022-11-12T01:24:12.240Z,57.70
2022-11-12T01:26:39.204Z,59.30
2022-11-12T01:29:06.366Z,63.30
2022-11-12T01:31:38.384Z,66.60
2022-11-12T01:34:07.323Z,67.30
2022-11-12T01:36:36.957Z,66.80
2022-11-12T01:39:08.696Z,67.50
2022-11-12T01:41:39.252Z,59.70
2022-11-12T01:44:12.079Z,58.70
2022-11-12T01:46:50.981Z,54.20
2022-11-12T01:49:52.374Z,51.90
2022-11-12T01:52:35.125Z,50.00
2022-11-12T01:55:09.842Z,47.50
2022-11-12T01:57:43.976Z,45.60
2022-11-12T02:00:13.000Z,47.20
2022-11-12T02:02:40.921Z,44.60
2022-11-12T02:05:11.153Z,44.80
2022-11-12T02:07:41.065Z,42.60
2022-11-12T02:10:09.061Z,43.70
2022-11-12T02:12:36.455Z,44.10
2022-11-12T02:15:04.056Z,43.30
2022-11-12T02:17:30.490Z,43.30
2022-11-12T02:20:00.840Z,43.90
2022-11-12T02:22:27.513Z,42.70
2022-11-12T02:24:54.204Z,42.40
2022-11-12T02:27:21.757Z,44.80
2022-11-12T02:29:48.254Z,45.10
2022-11-12T02:32:14.835Z,44.90
2022-11-12T02:34:41.584Z,47.10
2022-11-12T02:37:08.327Z,47.60
2022-11-12T02:39:35.057Z,52.20
2022-11-12T02:42:01.714Z,52.90
2022-11-12T02:44:28.896Z,53.50
2022-11-12T02:46:55.381Z,51.60
2022-11-12T02:49:22.139Z,52.40
2022-11-12T02:51:48.677Z,50.10
2022-11-12T02:54:15.216Z,52.30
2022-11-12T02:56:41.944Z,49.70
2022-11-12T02:59:08.503Z,47.80
2022-11-12T03:01:35.041Z,47.40
2022-11-12T03:04:01.681Z,46.50
2022-11-12T03:06:28.318Z,41.40
2022-11-12T03:08:54.855Z,48.10
2022-11-12T03:11:21.389Z,46.70
2022-11-12T03:13:48.036Z,46.50
2022-11-12T03:16:14.477Z,46.00
2022-11-12T03:18:40.908Z,49.80
2022-11-12T03:21:07.415Z,47.90
2022-11-12T03:23:33.963Z,45.90
2022-11-12T03:26:03.521Z,48.80
2022-11-12T03:28:30.549Z,45.30
2022-11-12T03:30:59.261Z,46.60
2022-11-12T03:33:25.723Z,44.60
2022-11-12T03:35:52.420Z,47.00
2022-11-12T03:38:18.903Z,44.90
2022-11-12T03:40:45.600Z,43.60
2022-11-12T03:43:12.135Z,46.40
2022-11-12T03:45:38.677Z,45.50
2022-11-12T03:48:05.834Z,44.40
2022-11-12T03:50:32.475Z,45.60
2022-11-12T03:52:59.933Z,45.10
2022-11-12T03:55:28.589Z,47.30
2022-11-12T03:57:56.436Z,44.30
2022-11-12T04:00:24.887Z,44.20
2022-11-12T04:02:52.026Z,44.20
2022-11-12T04:05:18.784Z,43.10
2022-11-12T04:07:45.314Z,41.60
2022-11-12T04:10:11.956Z,42.30
2022-11-12T04:12:38.501Z,42.30
2022-11-12T04:15:05.852Z,41.90
2022-11-12T04:17:32.386Z,41.00
2022-11-12T04:19:59.133Z,42.20
2022-11-12T04:22:25.667Z,43.40
2022-11-12T04:24:52.209Z,45.80
2022-11-12T04:27:30.795Z,44.80
2022-11-12T04:29:57.781Z,40.80
2022-11-12T04:32:25.020Z,42.90
2022-11-12T04:34:52.417Z,43.50
2022-11-12T04:37:23.336Z,39.80
2022-11-12T04:39:51.303Z,40.60
2022-11-12T04:42:17.901Z,39.70
2022-11-12T04:44:44.504Z,41.10
2022-11-12T04:47:10.995Z,38.80
2022-11-12T04:49:37.559Z,40.20
2022-11-12T04:52:04.202Z,38.70
2022-11-12T04:54:30.740Z,39.60
2022-11-12T04:56:57.278Z,44.10
2022-11-12T04:59:23.815Z,45.00
2022-11-12T05:01:50.455Z,42.20
2022-11-12T05:04:16.993Z,42.80
2022-11-12T05:06:43.837Z,42.90
2022-11-12T05:09:10.377Z,42.30
2022-11-12T05:11:36.834Z,46.80
2022-11-12T05:14:03.302Z,42.20
2022-11-12T05:16:29.966Z,39.50
2022-11-12T05:18:56.534Z,40.70
2022-11-12T05:21:23.076Z,43.20
2022-11-12T05:23:49.612Z,41.70
2022-11-12T05:26:16.147Z,42.90
2022-11-12T05:28:42.796Z,41.70
2022-11-12T05:31:09.231Z,43.70
2022-11-12T05:33:35.709Z,44.80
2022-11-12T05:36:02.292Z,42.50
2022-11-12T05:38:29.021Z,42.60
2022-11-12T05:40:55.793Z,43.90
2022-11-12T05:43:22.335Z,45.60
2022-11-12T05:45:48.875Z,53.50
2022-11-12T05:48:18.857Z,54.50
2022-11-12T05:53:42.684Z,56.60
2022-11-12T05:56:09.957Z,61.70
2022-11-12T05:58:37.189Z,51.70
2022-11-12T06:01:04.566Z,50.00
2022-11-12T06:03:31.332Z,62.50
2022-11-12T06:05:58.052Z,64.40
2022-11-12T06:08:24.796Z,128.40
2022-11-12T06:10:55.455Z,97.00
2022-11-12T06:13:24.201Z,103.50
2022-11-12T06:15:52.552Z,78.10
2022-11-12T06:18:19.153Z,68.00
2022-11-12T06:20:45.808Z,69.80
2022-11-12T06:23:12.424Z,62.60
2022-11-12T06:25:38.867Z,53.50
2022-11-12T06:28:05.317Z,44.60
2022-11-12T06:30:31.835Z,42.70
2022-11-12T06:32:58.374Z,42.20
2022-11-12T06:35:24.910Z,45.00
2022-11-12T06:37:51.554Z,42.80
2022-11-12T06:40:18.195Z,35.80
2022-11-12T06:42:44.734Z,35.90
2022-11-12T06:45:11.197Z,35.90
2022-11-12T06:47:37.819Z,34.50
2022-11-12T06:50:04.876Z,33.80
2022-11-12T06:52:31.512Z,30.00
2022-11-12T06:54:58.041Z,29.00
2022-11-12T06:57:24.578Z,27.50
2022-11-12T06:59:51.197Z,26.70
2022-11-12T07:02:17.705Z,29.10
2022-11-12T07:04:44.196Z,31.80
2022-11-12T07:07:11.256Z,31.30
2022-11-12T07:09:37.879Z,26.40
2022-11-12T07:12:04.737Z,24.40
2022-11-12T07:14:31.272Z,23.80
2022-11-12T07:16:57.813Z,23.80
2022-11-12T07:19:24.239Z,25.60
2022-11-12T07:21:50.897Z,22.90
2022-11-12T07:24:17.352Z,21.60
2022-11-12T07:26:47.520Z,23.40
2022-11-12T07:29:24.878Z,23.50
2022-11-12T07:32:01.018Z,24.00
2022-11-12T07:34:27.455Z,25.60
2022-11-12T07:36:53.887Z,24.20
2022-11-12T07:39:20.424Z,25.50
2022-11-12T07:41:46.966Z,24.70
2022-11-12T07:44:13.513Z,26.00
2022-11-12T07:46:40.044Z,27.90
2022-11-12T07:49:06.581Z,27.90
2022-11-12T07:51:33.117Z,31.70
2022-11-12T07:53:59.945Z,28.60
2022-11-12T07:56:28.493Z,29.30
2022-11-12T07:58:55.485Z,29.10
2022-11-12T08:01:36.404Z,30.20
2022-11-12T08:04:05.396Z,28.40
2022-11-12T08:06:32.997Z,28.40
2022-11-12T08:09:01.549Z,27.80
2022-11-12T08:11:28.471Z,27.60
2022-11-12T08:13:55.008Z,31.00
2022-11-12T08:16:21.653Z,25.60
2022-11-12T08:18:48.715Z,27.10
2022-11-12T08:21:17.421Z,27.00
2022-11-12T08:23:44.243Z,26.60
2022-11-12T08:26:13.455Z,23.80
2022-11-12T08:28:40.186Z,22.80
2022-11-12T08:31:09.873Z,23.50
2022-11-12T08:33:36.660Z,23.10
2022-11-12T08:36:05.307Z,21.70
2022-11-12T08:38:32.252Z,21.80
2022-11-12T08:41:10.196Z,20.90
2022-11-12T08:43:37.658Z,20.50
2022-11-12T08:46:04.619Z,19.20
2022-11-12T08:48:32.677Z,22.40
2022-11-12T08:51:01.925Z,23.90
2022-11-12T08:53:28.417Z,21.10
2022-11-12T08:55:56.287Z,21.90
2022-11-12T08:58:25.018Z,21.80
2022-11-12T09:00:52.440Z,19.80
2022-11-12T09:03:21.948Z,20.10
2022-11-12T09:05:49.866Z,19.20
2022-11-12T09:08:19.755Z,19.30
2022-11-12T09:10:46.885Z,18.00
2022-11-12T09:13:13.834Z,17.90
2022-11-12T09:15:41.017Z,17.60
2022-11-12T09:18:12.994Z,18.30
2022-11-12T09:20:39.997Z,15.80
2022-11-12T09:23:12.829Z,16.00
2022-11-12T09:25:40.754Z,14.80
2022-11-12T09:28:18.771Z,15.40
2022-11-12T09:30:48.125Z,14.70
2022-11-12T09:33:19.889Z,19.30
2022-11-12T09:35:47.085Z,16.80
2022-11-12T09:38:14.636Z,18.70
2022-11-12T09:40:53.165Z,14.90
2022-11-12T09:43:40.004Z,13.20
2022-11-12T09:46:28.259Z,11.30
2022-11-12T09:49:14.114Z,13.00
2022-11-12T09:52:06.561Z,12.00
2022-11-12T09:54:35.968Z,13.70
2022-11-12T09:57:02.676Z,14.70
2022-11-12T09:59:32.843Z,14.00
2022-11-12T10:02:29.793Z,14.20
2022-11-12T10:04:56.330Z,13.00
2022-11-12T10:07:44.992Z,12.80
2022-11-12T10:10:41.765Z,13.20
2022-11-12T10:13:19.334Z,15.40
2022-11-12T10:15:48.939Z,13.70
2022-11-12T10:18:27.790Z,13.70
2022-11-12T10:21:13.247Z,13.00
2022-11-12T10:23:46.210Z,12.00
2022-11-12T10:26:18.511Z,11.00
2022-11-12T10:28:53.615Z,12.40
2022-11-12T10:31:21.732Z,11.90
2022-11-12T10:33:48.367Z,11.80
2022-11-12T10:36:34.160Z,10.90
2022-11-12T10:39:00.598Z,10.20
2022-11-12T10:41:30.431Z,8.80
2022-11-12T10:44:03.768Z,8.50
2022-11-12T10:46:38.342Z,8.00
2022-11-12T10:49:15.331Z,8.40
2022-11-12T10:51:54.488Z,8.00
2022-11-12T10:54:26.822Z,8.50
2022-11-12T10:56:55.602Z,7.50
2022-11-12T10:59:24.316Z,7.10
2022-11-12T11:01:57.194Z,7.80
2022-11-12T11:04:36.547Z,8.80
2022-11-12T11:07:20.135Z,6.20
2022-11-12T11:09:58.189Z,9.40
2022-11-12T11:12:29.541Z,7.80
2022-11-12T11:15:11.420Z,8.20
2022-11-12T11:17:37.937Z,8.70
2022-11-12T11:20:14.142Z,9.60
2022-11-12T11:22:47.785Z,9.50
2022-11-12T11:25:25.755Z,9.00
2022-11-12T11:28:08.469Z,8.20
2022-11-12T11:30:44.683Z,8.00
2022-11-12T11:33:43.676Z,6.70
2022-11-12T11:36:10.141Z,6.30
2022-11-12T11:38:45.825Z,6.40
2022-11-12T11:41:27.509Z,6.40
2022-11-12T11:44:26.555Z,6.20
2022-11-12T11:47:08.830Z,5.30
2022-11-12T11:50:03.518Z,5.70
2022-11-12T11:52:34.631Z,5.50
2022-11-12T11:55:26.755Z,5.10
2022-11-12T11:58:16.311Z,4.20
2022-11-12T12:01:00.846Z,4.90
2022-11-12T12:03:45.804Z,4.50
2022-11-12T12:06:20.970Z,5.00
2022-11-12T12:08:50.259Z,4.50
2022-11-12T12:11:25.822Z,4.60
2022-11-12T12:14:14.144Z,4.70
2022-11-12T12:17:11.620Z,4.70
2022-11-12T12:19:45.735Z,4.60
2022-11-12T12:22:18.970Z,4.60
2022-11-12T12:24:57.559Z,4.80
2022-11-12T12:27:32.848Z,4.60
2022-11-12T12:30:17.458Z,4.70
2022-11-12T12:32:55.256Z,4.90
2022-11-12T12:35:40.748Z,5.00
2022-11-12T12:38:26.067Z,5.90
2022-11-12T12:41:20.415Z,6.20
2022-11-12T12:43:52.688Z,6.10
2022-11-12T12:46:23.538Z,5.10
2022-11-12T12:48:52.360Z,5.20
2022-11-12T12:51:19.400Z,5.80
2022-11-12T12:53:46.318Z,5.20
2022-11-12T12:56:12.959Z,5.80
2022-11-12T12:58:50.545Z,5.60
2022-11-12T13:01:19.934Z,5.00
2022-11-12T13:03:57.758Z,5.70
2022-11-12T13:06:28.217Z,5.20
2022-11-12T13:08:56.539Z,5.20
2022-11-12T13:11:41.543Z,5.30
2022-11-12T13:14:36.238Z,6.20
2022-11-12T13:17:04.147Z,5.90
2022-11-12T13:19:47.743Z,6.00
2022-11-12T13:22:17.441Z,6.10
2022-11-12T13:25:08.222Z,6.20
2022-11-12T13:27:43.940Z,6.20
2022-11-12T13:30:30.320Z,5.80
2022-11-12T13:32:58.651Z,6.00
2022-11-12T13:35:29.644Z,5.40
2022-11-12T13:41:09.418Z,5.30
2022-11-12T13:43:40.325Z,5.70
2022-11-12T13:46:06.801Z,5.70
2022-11-12T13:48:39.992Z,7.40
2022-11-12T13:51:22.297Z,8.30
2022-11-12T13:53:48.836Z,7.30
2022-11-12T13:56:29.652Z,7.40
2022-11-12T13:59:08.970Z,9.20
2022-11-12T14:01:35.615Z,9.70
2022-11-12T14:04:02.084Z,11.20
2022-11-12T14:06:42.746Z,11.00
2022-11-12T14:09:47.126Z,8.40
2022-11-12T14:12:34.409Z,9.20
2022-11-12T14:15:32.775Z,8.30
2022-11-12T14:18:07.056Z,5.60
2022-11-12T14:20:34.862Z,6.60
2022-11-12T14:23:12.012Z,6.20
2022-11-12T14:25:54.525Z,5.60
2022-11-12T14:28:35.402Z,5.10
2022-11-12T14:31:04.171Z,10.20
2022-11-12T14:33:32.367Z,10.40
2022-11-12T14:36:16.661Z,10.10
2022-11-12T14:38:55.447Z,11.00
2022-11-12T14:41:31.377Z,8.50
2022-11-12T14:44:12.589Z,11.40
2022-11-12T14:46:50.301Z,14.40
2022-11-12T14:49:28.411Z,9.40
2022-11-12T14:52:03.756Z,12.10
2022-11-12T14:54:50.428Z,10.00
2022-11-12T14:57:28.109Z,10.60
2022-11-12T14:59:56.090Z,13.70
2022-11-12T15:02:42.354Z,16.20
2022-11-12T15:05:19.264Z,14.50
2022-11-12T15:08:19.568Z,15.40
2022-11-12T15:10:46.930Z,27.00
2022-11-12T15:13:19.876Z,15.00
2022-11-12T15:15:55.884Z,15.80
2022-11-12T15:18:27.944Z,16.70
2022-11-12T15:21:09.734Z,17.40
2022-11-12T15:23:36.687Z,15.20
2022-11-12T15:26:04.043Z,16.40
2022-11-12T15:28:30.585Z,12.30
2022-11-12T15:31:21.537Z,15.40
2022-11-12T15:33:48.243Z,16.60
2022-11-12T15:36:20.743Z,15.10
2022-11-12T15:38:50.841Z,12.60
2022-11-12T15:41:29.493Z,12.50
2022-11-12T15:43:57.085Z,12.00
2022-11-12T15:46:23.559Z,15.10
2022-11-12T15:48:55.593Z,15.40
2022-11-12T15:51:23.085Z,18.00
2022-11-12T15:53:49.563Z,16.40
2022-11-12T15:56:19.319Z,18.40
2022-11-12T15:58:45.875Z,27.00
2022-11-12T16:01:12.933Z,27.60
2022-11-12T16:03:39.770Z,28.20
2022-11-12T16:06:09.181Z,46.20
2022-11-12T16:08:36.040Z,34.90
2022-11-12T16:11:02.677Z,41.40
2022-11-12T16:13:33.200Z,49.40
2022-11-12T16:16:04.356Z,44.00
2022-11-12T16:18:30.874Z,47.90
2022-11-12T16:20:57.823Z,49.50
2022-11-12T16:23:24.423Z,50.80
2022-11-12T16:25:51.516Z,71.40
2022-11-12T16:28:19.280Z,75.50
2022-11-12T16:30:47.869Z,76.70
2022-11-12T16:33:14.513Z,70.10
2022-11-12T16:35:41.364Z,65.50
2022-11-12T16:38:15.910Z,62.00
2022-11-12T16:40:43.917Z,67.90
2022-11-12T16:43:11.142Z,75.70
2022-11-12T16:45:43.074Z,89.80
2022-11-12T16:48:17.226Z,75.80
2022-11-12T16:50:43.831Z,77.00
2022-11-12T16:53:10.292Z,79.20
2022-11-12T16:55:36.771Z,88.50
2022-11-12T16:58:03.344Z,93.90
2022-11-12T17:00:30.085Z,89.90
2022-11-12T17:02:56.624Z,144.20
2022-11-12T17:05:25.108Z,127.80
2022-11-12T17:07:56.608Z,119.50
2022-11-12T17:10:23.711Z,111.40
2022-11-12T17:12:53.429Z,103.70
2022-11-12T17:15:20.380Z,110.60
2022-11-12T17:17:46.909Z,103.20
2022-11-12T17:20:13.448Z,101.70
2022-11-12T17:22:39.925Z,97.70
2022-11-12T17:25:07.281Z,96.70
2022-11-12T17:27:33.783Z,133.40
2022-11-12T17:30:00.324Z,111.80
2022-11-12T17:32:27.271Z,130.60
2022-11-12T17:34:53.810Z,133.00
2022-11-12T17:37:20.290Z,211.00
2022-11-12T17:39:46.887Z,176.10
2022-11-12T17:42:13.423Z,154.80
2022-11-12T17:44:39.833Z,146.80
2022-11-12T17:47:06.398Z,125.10
2022-11-12T17:49:32.972Z,131.30
2022-11-12T17:51:59.472Z,129.40
2022-11-12T17:54:26.015Z,126.70
2022-11-12T17:56:52.471Z,108.40
2022-11-12T17:59:18.912Z,104.80
2022-11-12T18:01:45.319Z,91.00
2022-11-12T18:04:11.859Z,85.80
2022-11-12T18:06:38.571Z,87.30
2022-11-12T18:09:08.023Z,83.60
2022-11-12T18:11:44.948Z,96.60
2022-11-12T18:14:11.932Z,90.00
2022-11-12T18:16:38.894Z,85.70
2022-11-12T18:19:06.285Z,85.70
2022-11-12T18:21:32.881Z,97.70
2022-11-12T18:23:59.327Z,166.90
2022-11-12T18:26:25.819Z,114.90
2022-11-12T18:28:53.846Z,140.40
2022-11-12T18:31:22.103Z,140.30
2022-11-12T18:33:49.459Z,137.80
2022-11-12T18:36:18.456Z,155.40
2022-11-12T18:38:45.719Z,139.60
2022-11-12T18:41:18.831Z,142.70
2022-11-12T18:43:45.338Z,174.30
2022-11-12T18:46:12.489Z,143.90
2022-11-12T18:48:39.213Z,142.10
2022-11-12T18:51:10.903Z,186.70
2022-11-12T18:53:38.690Z,173.50
2022-11-12T18:56:11.852Z,143.60
2022-11-12T18:58:38.393Z,83.20
2022-11-12T19:01:07.789Z,84.90
2022-11-12T19:03:34.971Z,85.90
2022-11-12T19:06:03.735Z,98.90
2022-11-12T19:08:30.391Z,93.90
2022-11-12T19:11:04.533Z,99.60
2022-11-12T19:13:32.160Z,111.40
2022-11-12T19:16:07.760Z,112.70
2022-11-12T19:18:34.347Z,188.30
2022-11-12T19:21:05.951Z,168.80
2022-11-12T19:23:33.812Z,131.00
2022-11-12T19:26:04.612Z,144.20
2022-11-12T19:28:31.967Z,157.50
2022-11-12T19:30:58.609Z,124.50
2022-11-12T19:33:25.153Z,117.90
2022-11-12T19:35:51.584Z,128.50
2022-11-12T19:38:18.124Z,123.80
2022-11-12T19:40:44.658Z,136.50
2022-11-12T19:43:11.300Z,154.40
2022-11-12T19:45:37.764Z,163.80
2022-11-12T19:48:04.383Z,179.30
2022-11-12T19:50:31.328Z,175.40
2022-11-12T19:52:57.864Z,151.10
2022-11-12T19:55:24.410Z,132.20
2022-11-12T19:57:51.367Z,151.10
2022-11-12T20:00:18.426Z,169.50
2022-11-12T20:02:45.079Z,170.60
2022-11-12T20:05:11.577Z,170.90
2022-11-12T20:07:38.038Z,163.60
2022-11-12T20:10:05.161Z,138.60
2022-11-12T20:12:31.566Z,144.70
2022-11-12T20:14:58.029Z,173.40
2022-11-12T20:17:24.571Z,160.60
2022-11-12T20:19:51.102Z,177.20
2022-11-12T20:22:17.639Z,160.40
2022-11-12T20:24:44.177Z,158.10
2022-11-12T20:27:10.712Z,144.80
2022-11-12T20:29:37.254Z,153.30
2022-11-12T20:32:03.860Z,147.80
2022-11-12T20:34:30.327Z,144.20
2022-11-12T20:36:56.767Z,149.10
2022-11-12T20:39:23.300Z,160.20
2022-11-12T20:41:49.712Z,130.80
2022-11-12T20:44:16.374Z,116.20
2022-11-12T20:46:42.842Z,114.20
2022-11-12T20:49:09.308Z,110.60
2022-11-12T20:51:36.093Z,114.20
2022-11-12T20:54:02.635Z,123.70
2022-11-12T20:56:30.635Z,132.20
2022-11-12T20:58:59.093Z,120.80
2022-11-12T21:01:27.777Z,114.10
2022-11-12T21:03:55.029Z,117.50
2022-11-12T21:06:24.192Z,123.90
2022-11-12T21:08:50.966Z,124.00
2022-11-12T21:11:22.900Z,128.40
2022-11-12T21:13:49.779Z,126.40
2022-11-12T21:16:16.620Z,125.10
2022-11-12T21:18:43.099Z,120.50
2022-11-12T21:21:15.155Z,129.40
2022-11-12T21:23:43.827Z,127.60
2022-11-12T21:26:21.562Z,131.90
2022-11-12T21:28:53.278Z,123.50
2022-11-12T21:31:37.949Z,121.40
2022-11-12T21:34:04.680Z,121.40
2022-11-12T21:36:32.819Z,121.00
2022-11-12T21:38:59.327Z,116.50
2022-11-12T21:41:27.884Z,125.90
2022-11-12T21:43:55.031Z,115.30
2022-11-12T21:46:27.446Z,111.10
2022-11-12T21:48:55.786Z,110.50
2022-11-12T21:51:27.776Z,108.60
2022-11-12T21:53:57.024Z,106.40
2022-11-12T21:56:23.864Z,104.40
2022-11-12T21:58:50.724Z,103.70
2022-11-12T22:01:22.678Z,101.30
2022-11-12T22:03:50.610Z,106.50
2022-11-12T22:06:18.771Z,102.30
2022-11-12T22:08:45.724Z,107.60
2022-11-12T22:11:14.708Z,103.00
2022-11-12T22:13:42.166Z,97.60
2022-11-12T22:16:09.787Z,96.80
2022-11-12T22:18:40.720Z,105.70
2022-11-12T22:21:13.866Z,100.20
2022-11-12T22:23:40.660Z,99.70
2022-11-12T22:26:14.115Z,110.90
2022-11-12T22:28:41.213Z,108.40
2022-11-12T22:31:11.347Z,108.50
2022-11-12T22:33:38.949Z,114.10
2022-11-12T22:36:08.538Z,109.20
2022-11-12T22:38:36.805Z,111.60
2022-11-12T22:41:09.206Z,113.60
2022-11-12T22:43:35.748Z,124.60
2022-11-12T22:46:10.519Z,102.50
2022-11-12T22:48:37.633Z,101.80
2022-11-12T22:51:06.983Z,102.60
2022-11-12T22:53:34.298Z,125.20
2022-11-12T22:56:09.129Z,115.90
2022-11-12T22:58:40.628Z,107.20
2022-11-12T23:03:35.312Z,133.90
2022-11-12T23:06:04.843Z,138.10
2022-11-12T23:08:32.391Z,113.40
2022-11-12T23:11:05.040Z,142.70
2022-11-12T23:13:32.204Z,129.30
2022-11-12T23:15:59.092Z,139.20
2022-11-12T23:18:26.115Z,133.70
2022-11-12T23:20:52.951Z,136.20
2022-11-12T23:23:19.574Z,125.70
2022-11-12T23:25:46.125Z,131.70
2022-11-12T23:28:12.661Z,138.20
2022-11-12T23:30:39.093Z,142.70
2022-11-12T23:33:05.639Z,157.90
2022-11-12T23:35:32.177Z,142.00
2022-11-12T23:37:58.780Z,147.20
2022-11-12T23:40:29.797Z,134.40
2022-11-12T23:42:57.501Z,134.70
2022-11-12T23:45:23.969Z,129.30
2022-11-12T23:47:54.705Z,130.60
2022-11-12T23:50:21.242Z,130.90
2022-11-12T23:52:47.885Z,125.90
2022-11-12T23:55:14.529Z,128.60
2022-11-12T23:57:41.167Z,127.00
